Christmas Island, Australian Islands

9:27 AM CXT on May 05, 2015 (GMT +0700)
Christmas Island | | Change Station
CLOSE
Current Station
Personal Weather Station
Location: Christmas Island, WESTERN AUSTRALIA
Elevation: 732 ft
Nearby Weather Stations

Elev 732 ft 10.42 °S, 105.69 °E | Updated 41 seconds ago

Heavy Rain Showers
Heavy Showers Rain
73.4 °F
Feels Like 70 °F
N
11.0
Wind Variable Wind from ESE
Gusts 18.0 mph

Today
High -- | Low -- °F
--% Chance of Precip.
Yesterday
High -- | Low -- °F
Precip. -- in
6:02 AM 5:45 PM
Full, 99% visible
Pressure 29.95 in
Visibility 0.2 miles
Clouds Scattered Clouds 100 ft
Mostly Cloudy 400 ft
Mostly Cloudy 900 ft
Heat Index 70 °F
Dew Point 72 °F
Humidity 94%
Rainfall 0.02 in
Snow Depth Not available.
UV 4 out of 12
Pollen Not available.
Air Quality Not available.
Flu Activity Not available.
SPECI YPXM 050227Z AUTO 13009KT 0350 +SHRA SCT001 BKN004 BKN009 24/23 Q1014

More Conditions Fewer Conditions

Pressure 29.95 in
Visibility 0.2 miles
Clouds Scattered Clouds 100 ft
Mostly Cloudy 400 ft
Mostly Cloudy 900 ft
Heat Index 70 °F
Dew Point 72 °F
Humidity 94%
Rainfall 0.02 in
Snow Depth Not available.
UV 4 out of 12
Pollen Not available.
Air Quality Not available.
Flu Activity Not available.
SPECI YPXM 050227Z AUTO 13009KT 0350 +SHRA SCT001 BKN004 BKN009 24/23 Q1014

More Conditions Fewer Conditions

10-Day Weather Forecast

Almanac

Astronomy

May. 05, 2015 Rise Set
Actual Time
Civil Twilight
Nautical Twilight
Astronomical Twilight
Moon
Length of Visible Light
Length of Day
Tomorrow will be .
, % of the Moon is Illuminated

Today's Extremes

Country Highs Country Lows

Community

WunderPhotos

Upload Photos

1,818,785 photos uploaded!

WunderBlogs® & News

Nearby

Air Quality

  Air Quality AQ Index Pollutant
Not available.

Snow Depth

Station Depth Elevation

Earthquake Activity

City Distance Mag. Time & Date
Minimum magnitude displayed is 2.5.

Coastal Water Temperatures

Place Temperature

Stations

Nearby Weather Stations

Station Location Temp. Windchill Dew Point Humidity Wind Precip. Elev Updated Type